sensor_id;sensor_type;location;lat;lon;timestamp;P1;durP1;ratioP1;P2;durP2;ratioP2
4794;SDS011;2411;47.060;15.064;2023-12-07T00:00:37;4.93;;;3.80;;
4794;SDS011;2411;47.060;15.064;2023-12-07T00:03:04;3.90;;;3.70;;
4794;SDS011;2411;47.060;15.064;2023-12-07T00:05:33;3.30;;;3.10;;
4794;SDS011;2411;47.060;15.064;2023-12-07T00:08:01;4.77;;;4.37;;
4794;SDS011;2411;47.060;15.064;2023-12-07T00:10:28;3.87;;;3.47;;
4794;SDS011;2411;47.060;15.064;2023-12-07T00:12:55;3.63;;;3.33;;
4794;SDS011;2411;47.060;15.064;2023-12-07T00:15:23;2.90;;;2.70;;
4794;SDS011;2411;47.060;15.064;2023-12-07T00:17:50;3.07;;;2.77;;
4794;SDS011;2411;47.060;15.064;2023-12-07T00:20:18;4.43;;;4.03;;
4794;SDS011;2411;47.060;15.064;2023-12-07T00:22:45;4.13;;;3.73;;
4794;SDS011;2411;47.060;15.064;2023-12-07T00:25:12;5.80;;;4.70;;
4794;SDS011;2411;47.060;15.064;2023-12-07T00:27:40;7.30;;;5.47;;
4794;SDS011;2411;47.060;15.064;2023-12-07T00:30:08;4.87;;;4.47;;
4794;SDS011;2411;47.060;15.064;2023-12-07T00:32:35;5.90;;;5.20;;
4794;SDS011;2411;47.060;15.064;2023-12-07T00:35:03;12.80;;;8.80;;
4794;SDS011;2411;47.060;15.064;2023-12-07T00:37:30;16.50;;;8.23;;
4794;SDS011;2411;47.060;15.064;2023-12-07T00:39:58;9.93;;;7.60;;
4794;SDS011;2411;47.060;15.064;2023-12-07T00:42:25;10.83;;;6.63;;
4794;SDS011;2411;47.060;15.064;2023-12-07T00:44:53;11.33;;;8.60;;
4794;SDS011;2411;47.060;15.064;2023-12-07T00:47:21;12.50;;;8.37;;
4794;SDS011;2411;47.060;15.064;2023-12-07T00:49:48;7.47;;;6.67;;
4794;SDS011;2411;47.060;15.064;2023-12-07T00:52:16;6.47;;;5.10;;
4794;SDS011;2411;47.060;15.064;2023-12-07T00:54:43;7.00;;;5.77;;
4794;SDS011;2411;47.060;15.064;2023-12-07T00:57:10;3.90;;;3.57;;
4794;SDS011;2411;47.060;15.064;2023-12-07T00:59:38;5.47;;;4.87;;
4794;SDS011;2411;47.060;15.064;2023-12-07T01:02:06;4.83;;;4.47;;
4794;SDS011;2411;47.060;15.064;2023-12-07T01:04:33;4.10;;;3.30;;
4794;SDS011;2411;47.060;15.064;2023-12-07T01:07:01;7.10;;;4.53;;
4794;SDS011;2411;47.060;15.064;2023-12-07T01:09:28;6.10;;;4.80;;
4794;SDS011;2411;47.060;15.064;2023-12-07T01:11:56;10.90;;;6.67;;
4794;SDS011;2411;47.060;15.064;2023-12-07T01:14:24;9.90;;;5.83;;
4794;SDS011;2411;47.060;15.064;2023-12-07T01:16:52;8.73;;;5.30;;
4794;SDS011;2411;47.060;15.064;2023-12-07T01:19:19;9.57;;;5.03;;
4794;SDS011;2411;47.060;15.064;2023-12-07T01:21:46;7.80;;;5.50;;
4794;SDS011;2411;47.060;15.064;2023-12-07T01:24:14;3.07;;;2.87;;
4794;SDS011;2411;47.060;15.064;2023-12-07T01:26:42;4.73;;;4.23;;
4794;SDS011;2411;47.060;15.064;2023-12-07T01:29:10;2.90;;;2.37;;
4794;SDS011;2411;47.060;15.064;2023-12-07T01:31:37;1.30;;;1.20;;
4794;SDS011;2411;47.060;15.064;2023-12-07T01:34:05;1.80;;;1.70;;
4794;SDS011;2411;47.060;15.064;2023-12-07T01:36:32;0.80;;;0.80;;
4794;SDS011;2411;47.060;15.064;2023-12-07T01:38:59;0.80;;;0.80;;
4794;SDS011;2411;47.060;15.064;2023-12-07T01:41:27;1.43;;;1.33;;
4794;SDS011;2411;47.060;15.064;2023-12-07T01:43:54;2.70;;;2.50;;
4794;SDS011;2411;47.060;15.064;2023-12-07T01:46:21;2.00;;;1.90;;
4794;SDS011;2411;47.060;15.064;2023-12-07T01:48:49;2.87;;;2.60;;
4794;SDS011;2411;47.060;15.064;2023-12-07T01:51:17;2.30;;;2.07;;
4794;SDS011;2411;47.060;15.064;2023-12-07T01:53:47;2.50;;;2.40;;
4794;SDS011;2411;47.060;15.064;2023-12-07T01:56:15;0.70;;;0.70;;
4794;SDS011;2411;47.060;15.064;2023-12-07T01:58:43;0.80;;;0.80;;
4794;SDS011;2411;47.060;15.064;2023-12-07T02:01:11;1.20;;;1.20;;
4794;SDS011;2411;47.060;15.064;2023-12-07T02:03:39;3.23;;;1.50;;
4794;SDS011;2411;47.060;15.064;2023-12-07T02:06:07;2.53;;;2.37;;
4794;SDS011;2411;47.060;15.064;2023-12-07T02:08:35;1.67;;;1.57;;
4794;SDS011;2411;47.060;15.064;2023-12-07T02:11:08;0.80;;;0.80;;
4794;SDS011;2411;47.060;15.064;2023-12-07T02:13:36;0.80;;;0.80;;
4794;SDS011;2411;47.060;15.064;2023-12-07T02:16:17;1.50;;;1.47;;
4794;SDS011;2411;47.060;15.064;2023-12-07T02:21:25;1.07;;;1.07;;
4794;SDS011;2411;47.060;15.064;2023-12-07T02:24:16;1.20;;;1.10;;
4794;SDS011;2411;47.060;15.064;2023-12-07T02:26:49;1.00;;;1.00;;
4794;SDS011;2411;47.060;15.064;2023-12-07T02:29:17;0.80;;;0.80;;
4794;SDS011;2411;47.060;15.064;2023-12-07T02:31:44;1.20;;;1.10;;
4794;SDS011;2411;47.060;15.064;2023-12-07T02:34:12;1.03;;;0.83;;
4794;SDS011;2411;47.060;15.064;2023-12-07T02:36:40;1.10;;;1.10;;
4794;SDS011;2411;47.060;15.064;2023-12-07T02:39:10;1.90;;;1.10;;
4794;SDS011;2411;47.060;15.064;2023-12-07T02:41:40;0.87;;;0.80;;
4794;SDS011;2411;47.060;15.064;2023-12-07T02:44:09;0.87;;;0.87;;
4794;SDS011;2411;47.060;15.064;2023-12-07T02:46:37;0.90;;;0.90;;
4794;SDS011;2411;47.060;15.064;2023-12-07T02:49:04;0.60;;;0.60;;
4794;SDS011;2411;47.060;15.064;2023-12-07T02:51:32;0.70;;;0.70;;
4794;SDS011;2411;47.060;15.064;2023-12-07T02:53:59;0.73;;;0.73;;
4794;SDS011;2411;47.060;15.064;2023-12-07T02:56:26;0.90;;;0.70;;
4794;SDS011;2411;47.060;15.064;2023-12-07T02:58:54;0.70;;;0.70;;
4794;SDS011;2411;47.060;15.064;2023-12-07T03:01:21;0.70;;;0.70;;
4794;SDS011;2411;47.060;15.064;2023-12-07T03:03:48;0.80;;;0.80;;
4794;SDS011;2411;47.060;15.064;2023-12-07T03:06:16;0.70;;;0.70;;
4794;SDS011;2411;47.060;15.064;2023-12-07T03:08:43;0.70;;;0.70;;
4794;SDS011;2411;47.060;15.064;2023-12-07T03:11:11;0.63;;;0.63;;
4794;SDS011;2411;47.060;15.064;2023-12-07T03:13:38;0.60;;;0.60;;
4794;SDS011;2411;47.060;15.064;2023-12-07T03:16:08;0.60;;;0.60;;
4794;SDS011;2411;47.060;15.064;2023-12-07T03:18:36;0.70;;;0.70;;
4794;SDS011;2411;47.060;15.064;2023-12-07T03:21:04;0.80;;;0.80;;
4794;SDS011;2411;47.060;15.064;2023-12-07T03:23:31;0.70;;;0.70;;
4794;SDS011;2411;47.060;15.064;2023-12-07T03:25:59;0.50;;;0.50;;
4794;SDS011;2411;47.060;15.064;2023-12-07T03:28:26;0.60;;;0.60;;
4794;SDS011;2411;47.060;15.064;2023-12-07T03:30:54;0.80;;;0.80;;
4794;SDS011;2411;47.060;15.064;2023-12-07T03:33:21;0.80;;;0.80;;
4794;SDS011;2411;47.060;15.064;2023-12-07T03:35:48;1.20;;;1.20;;
4794;SDS011;2411;47.060;15.064;2023-12-07T03:38:16;1.97;;;1.07;;
4794;SDS011;2411;47.060;15.064;2023-12-07T03:40:43;0.90;;;0.90;;
4794;SDS011;2411;47.060;15.064;2023-12-07T03:43:16;1.23;;;0.90;;
4794;SDS011;2411;47.060;15.064;2023-12-07T03:45:46;1.27;;;0.70;;
4794;SDS011;2411;47.060;15.064;2023-12-07T03:48:13;1.90;;;0.70;;
4794;SDS011;2411;47.060;15.064;2023-12-07T03:50:40;0.80;;;0.80;;
4794;SDS011;2411;47.060;15.064;2023-12-07T03:53:08;0.93;;;0.93;;
4794;SDS011;2411;47.060;15.064;2023-12-07T03:55:36;0.90;;;0.87;;
4794;SDS011;2411;47.060;15.064;2023-12-07T03:58:04;0.70;;;0.70;;
4794;SDS011;2411;47.060;15.064;2023-12-07T04:00:32;0.73;;;0.73;;
4794;SDS011;2411;47.060;15.064;2023-12-07T04:02:59;0.90;;;0.90;;
4794;SDS011;2411;47.060;15.064;2023-12-07T04:05:26;0.80;;;0.80;;
4794;SDS011;2411;47.060;15.064;2023-12-07T04:07:54;0.60;;;0.60;;
4794;SDS011;2411;47.060;15.064;2023-12-07T04:10:21;0.73;;;0.73;;
4794;SDS011;2411;47.060;15.064;2023-12-07T04:12:49;0.80;;;0.80;;
4794;SDS011;2411;47.060;15.064;2023-12-07T04:15:16;0.70;;;0.70;;
4794;SDS011;2411;47.060;15.064;2023-12-07T04:17:45;0.90;;;0.90;;
4794;SDS011;2411;47.060;15.064;2023-12-07T04:20:13;0.77;;;0.77;;
4794;SDS011;2411;47.060;15.064;2023-12-07T04:22:40;1.27;;;1.27;;
4794;SDS011;2411;47.060;15.064;2023-12-07T04:25:08;0.80;;;0.80;;
4794;SDS011;2411;47.060;15.064;2023-12-07T04:27:36;1.00;;;1.00;;
4794;SDS011;2411;47.060;15.064;2023-12-07T04:30:03;1.53;;;1.10;;
4794;SDS011;2411;47.060;15.064;2023-12-07T04:32:31;1.40;;;1.30;;
4794;SDS011;2411;47.060;15.064;2023-12-07T04:34:58;1.07;;;1.07;;
4794;SDS011;2411;47.060;15.064;2023-12-07T04:37:26;0.90;;;0.90;;
4794;SDS011;2411;47.060;15.064;2023-12-07T04:39:53;0.80;;;0.80;;
4794;SDS011;2411;47.060;15.064;2023-12-07T04:42:20;0.90;;;0.90;;
4794;SDS011;2411;47.060;15.064;2023-12-07T04:44:48;1.00;;;1.00;;
4794;SDS011;2411;47.060;15.064;2023-12-07T04:47:15;0.80;;;0.80;;
4794;SDS011;2411;47.060;15.064;2023-12-07T04:49:43;0.70;;;0.70;;
4794;SDS011;2411;47.060;15.064;2023-12-07T04:52:10;0.77;;;0.77;;
4794;SDS011;2411;47.060;15.064;2023-12-07T04:54:38;0.70;;;0.70;;
4794;SDS011;2411;47.060;15.064;2023-12-07T04:57:05;0.70;;;0.70;;
4794;SDS011;2411;47.060;15.064;2023-12-07T04:59:33;0.80;;;0.80;;
4794;SDS011;2411;47.060;15.064;2023-12-07T05:02:04;0.70;;;0.70;;
4794;SDS011;2411;47.060;15.064;2023-12-07T05:04:33;1.70;;;0.77;;
4794;SDS011;2411;47.060;15.064;2023-12-07T05:07:01;0.73;;;0.73;;
4794;SDS011;2411;47.060;15.064;2023-12-07T05:09:30;0.70;;;0.70;;
4794;SDS011;2411;47.060;15.064;2023-12-07T05:11:58;0.77;;;0.77;;
4794;SDS011;2411;47.060;15.064;2023-12-07T05:14:25;0.90;;;0.90;;
4794;SDS011;2411;47.060;15.064;2023-12-07T05:16:53;0.97;;;0.97;;
4794;SDS011;2411;47.060;15.064;2023-12-07T05:19:23;0.97;;;0.97;;
4794;SDS011;2411;47.060;15.064;2023-12-07T05:21:51;0.90;;;0.90;;
4794;SDS011;2411;47.060;15.064;2023-12-07T05:24:18;0.70;;;0.70;;
4794;SDS011;2411;47.060;15.064;2023-12-07T05:26:46;0.80;;;0.80;;
4794;SDS011;2411;47.060;15.064;2023-12-07T05:29:14;2.50;;;1.00;;
4794;SDS011;2411;47.060;15.064;2023-12-07T05:31:42;1.10;;;1.10;;
4794;SDS011;2411;47.060;15.064;2023-12-07T05:34:09;2.27;;;1.90;;
4794;SDS011;2411;47.060;15.064;2023-12-07T05:36:36;6.13;;;2.60;;
4794;SDS011;2411;47.060;15.064;2023-12-07T05:39:04;4.17;;;2.43;;
4794;SDS011;2411;47.060;15.064;2023-12-07T05:41:34;2.60;;;1.87;;
4794;SDS011;2411;47.060;15.064;2023-12-07T05:44:01;1.40;;;1.30;;
4794;SDS011;2411;47.060;15.064;2023-12-07T05:46:30;1.23;;;1.10;;
4794;SDS011;2411;47.060;15.064;2023-12-07T05:48:59;1.30;;;0.97;;
4794;SDS011;2411;47.060;15.064;2023-12-07T05:51:26;1.10;;;1.10;;
4794;SDS011;2411;47.060;15.064;2023-12-07T05:53:54;1.00;;;1.00;;
4794;SDS011;2411;47.060;15.064;2023-12-07T05:56:21;1.40;;;1.13;;
4794;SDS011;2411;47.060;15.064;2023-12-07T05:58:49;1.07;;;1.07;;
4794;SDS011;2411;47.060;15.064;2023-12-07T06:01:17;2.30;;;1.30;;
4794;SDS011;2411;47.060;15.064;2023-12-07T06:03:45;1.10;;;1.10;;
4794;SDS011;2411;47.060;15.064;2023-12-07T06:06:13;1.10;;;1.10;;
4794;SDS011;2411;47.060;15.064;2023-12-07T06:08:40;1.53;;;1.43;;
4794;SDS011;2411;47.060;15.064;2023-12-07T06:11:08;1.17;;;1.17;;
4794;SDS011;2411;47.060;15.064;2023-12-07T06:13:35;1.57;;;1.57;;
4794;SDS011;2411;47.060;15.064;2023-12-07T06:16:04;1.70;;;1.60;;
4794;SDS011;2411;47.060;15.064;2023-12-07T06:18:31;2.03;;;1.93;;
4794;SDS011;2411;47.060;15.064;2023-12-07T06:20:59;2.23;;;1.93;;
4794;SDS011;2411;47.060;15.064;2023-12-07T06:23:26;2.13;;;1.93;;
4794;SDS011;2411;47.060;15.064;2023-12-07T06:25:54;1.83;;;1.73;;
4794;SDS011;2411;47.060;15.064;2023-12-07T06:28:21;1.20;;;1.20;;
4794;SDS011;2411;47.060;15.064;2023-12-07T06:30:48;1.13;;;1.13;;
4794;SDS011;2411;47.060;15.064;2023-12-07T06:33:16;1.10;;;1.10;;
4794;SDS011;2411;47.060;15.064;2023-12-07T06:35:43;1.70;;;1.60;;
4794;SDS011;2411;47.060;15.064;2023-12-07T06:38:10;1.77;;;1.67;;
4794;SDS011;2411;47.060;15.064;2023-12-07T06:40:38;1.50;;;1.47;;
4794;SDS011;2411;47.060;15.064;2023-12-07T06:43:05;1.90;;;1.80;;
4794;SDS011;2411;47.060;15.064;2023-12-07T06:45:32;1.80;;;1.70;;
4794;SDS011;2411;47.060;15.064;2023-12-07T06:48:00;2.37;;;2.27;;
4794;SDS011;2411;47.060;15.064;2023-12-07T06:50:28;2.10;;;2.00;;
4794;SDS011;2411;47.060;15.064;2023-12-07T06:52:56;1.60;;;1.60;;
4794;SDS011;2411;47.060;15.064;2023-12-07T06:55:23;1.83;;;1.43;;
4794;SDS011;2411;47.060;15.064;2023-12-07T06:57:50;2.00;;;1.90;;
4794;SDS011;2411;47.060;15.064;2023-12-07T07:00:18;1.90;;;1.80;;
4794;SDS011;2411;47.060;15.064;2023-12-07T07:02:46;1.50;;;1.40;;
4794;SDS011;2411;47.060;15.064;2023-12-07T07:05:14;2.20;;;2.10;;
4794;SDS011;2411;47.060;15.064;2023-12-07T07:07:41;2.23;;;2.13;;
4794;SDS011;2411;47.060;15.064;2023-12-07T07:10:09;2.20;;;2.10;;
4794;SDS011;2411;47.060;15.064;2023-12-07T07:12:37;2.43;;;2.30;;
4794;SDS011;2411;47.060;15.064;2023-12-07T07:15:06;1.87;;;1.70;;
4794;SDS011;2411;47.060;15.064;2023-12-07T07:17:35;1.53;;;1.43;;
4794;SDS011;2411;47.060;15.064;2023-12-07T07:20:02;1.60;;;1.50;;
4794;SDS011;2411;47.060;15.064;2023-12-07T07:22:30;2.13;;;2.03;;
4794;SDS011;2411;47.060;15.064;2023-12-07T07:24:57;2.23;;;1.90;;
4794;SDS011;2411;47.060;15.064;2023-12-07T07:27:25;1.50;;;1.40;;
4794;SDS011;2411;47.060;15.064;2023-12-07T07:29:52;1.83;;;1.50;;
4794;SDS011;2411;47.060;15.064;2023-12-07T07:32:20;1.80;;;1.70;;
4794;SDS011;2411;47.060;15.064;2023-12-07T07:34:47;1.90;;;1.80;;
4794;SDS011;2411;47.060;15.064;2023-12-07T07:37:14;1.87;;;1.77;;
4794;SDS011;2411;47.060;15.064;2023-12-07T07:39:42;2.17;;;2.07;;
4794;SDS011;2411;47.060;15.064;2023-12-07T07:42:09;6.00;;;1.60;;
4794;SDS011;2411;47.060;15.064;2023-12-07T07:44:36;1.37;;;1.37;;
4794;SDS011;2411;47.060;15.064;2023-12-07T07:47:04;2.73;;;2.50;;
4794;SDS011;2411;47.060;15.064;2023-12-07T07:49:31;2.13;;;1.93;;
4794;SDS011;2411;47.060;15.064;2023-12-07T07:51:59;4.57;;;2.13;;
4794;SDS011;2411;47.060;15.064;2023-12-07T07:54:26;2.43;;;2.27;;
4794;SDS011;2411;47.060;15.064;2023-12-07T07:56:53;2.23;;;2.10;;
4794;SDS011;2411;47.060;15.064;2023-12-07T07:59:21;2.87;;;2.67;;
4794;SDS011;2411;47.060;15.064;2023-12-07T08:01:51;2.57;;;2.37;;
4794;SDS011;2411;47.060;15.064;2023-12-07T08:04:18;2.73;;;2.33;;
4794;SDS011;2411;47.060;15.064;2023-12-07T08:06:45;3.33;;;2.30;;
4794;SDS011;2411;47.060;15.064;2023-12-07T08:09:13;3.03;;;2.73;;
4794;SDS011;2411;47.060;15.064;2023-12-07T08:11:40;4.10;;;3.80;;
4794;SDS011;2411;47.060;15.064;2023-12-07T08:14:08;3.70;;;3.40;;
4794;SDS011;2411;47.060;15.064;2023-12-07T08:16:35;2.20;;;2.03;;
4794;SDS011;2411;47.060;15.064;2023-12-07T08:19:03;6.57;;;6.10;;
4794;SDS011;2411;47.060;15.064;2023-12-07T08:21:30;1.97;;;1.87;;
4794;SDS011;2411;47.060;15.064;2023-12-07T08:23:57;1.63;;;1.53;;
4794;SDS011;2411;47.060;15.064;2023-12-07T08:26:25;4.33;;;3.70;;
4794;SDS011;2411;47.060;15.064;2023-12-07T08:28:54;7.53;;;6.70;;
4794;SDS011;2411;47.060;15.064;2023-12-07T08:31:23;10.97;;;7.10;;
4794;SDS011;2411;47.060;15.064;2023-12-07T08:33:51;7.03;;;6.33;;
4794;SDS011;2411;47.060;15.064;2023-12-07T08:36:19;7.43;;;6.23;;
4794;SDS011;2411;47.060;15.064;2023-12-07T08:38:46;3.57;;;3.27;;
4794;SDS011;2411;47.060;15.064;2023-12-07T08:41:14;5.50;;;4.60;;
4794;SDS011;2411;47.060;15.064;2023-12-07T08:43:41;2.87;;;2.77;;
4794;SDS011;2411;47.060;15.064;2023-12-07T08:46:09;2.80;;;2.60;;
4794;SDS011;2411;47.060;15.064;2023-12-07T08:48:37;3.40;;;3.10;;
4794;SDS011;2411;47.060;15.064;2023-12-07T08:51:08;2.60;;;2.40;;
4794;SDS011;2411;47.060;15.064;2023-12-07T08:53:36;1.80;;;1.70;;
4794;SDS011;2411;47.060;15.064;2023-12-07T08:56:05;3.40;;;3.20;;
4794;SDS011;2411;47.060;15.064;2023-12-07T08:58:32;2.30;;;2.10;;
4794;SDS011;2411;47.060;15.064;2023-12-07T09:01:00;0.90;;;0.90;;
4794;SDS011;2411;47.060;15.064;2023-12-07T09:03:27;1.57;;;1.47;;
4794;SDS011;2411;47.060;15.064;2023-12-07T09:05:59;1.10;;;1.10;;
4794;SDS011;2411;47.060;15.064;2023-12-07T09:08:27;1.27;;;1.17;;
4794;SDS011;2411;47.060;15.064;2023-12-07T09:10:55;1.00;;;0.93;;
4794;SDS011;2411;47.060;15.064;2023-12-07T09:13:22;1.17;;;0.87;;
4794;SDS011;2411;47.060;15.064;2023-12-07T09:15:50;0.70;;;0.70;;
4794;SDS011;2411;47.060;15.064;2023-12-07T09:18:17;0.80;;;0.80;;
4794;SDS011;2411;47.060;15.064;2023-12-07T09:20:44;0.60;;;0.60;;
4794;SDS011;2411;47.060;15.064;2023-12-07T09:23:15;0.70;;;0.70;;
4794;SDS011;2411;47.060;15.064;2023-12-07T09:25:43;0.60;;;0.60;;
4794;SDS011;2411;47.060;15.064;2023-12-07T09:28:11;0.93;;;0.93;;
4794;SDS011;2411;47.060;15.064;2023-12-07T09:30:38;0.60;;;0.60;;
4794;SDS011;2411;47.060;15.064;2023-12-07T09:33:06;0.80;;;0.80;;
4794;SDS011;2411;47.060;15.064;2023-12-07T09:35:33;0.80;;;0.80;;
4794;SDS011;2411;47.060;15.064;2023-12-07T09:38:01;0.90;;;0.90;;
4794;SDS011;2411;47.060;15.064;2023-12-07T09:40:29;0.90;;;0.90;;
4794;SDS011;2411;47.060;15.064;2023-12-07T09:42:57;0.73;;;0.73;;
4794;SDS011;2411;47.060;15.064;2023-12-07T09:45:25;0.93;;;0.93;;
4794;SDS011;2411;47.060;15.064;2023-12-07T09:47:54;0.80;;;0.80;;
4794;SDS011;2411;47.060;15.064;2023-12-07T09:50:25;1.00;;;0.70;;
4794;SDS011;2411;47.060;15.064;2023-12-07T09:52:55;1.00;;;1.00;;
4794;SDS011;2411;47.060;15.064;2023-12-07T09:55:27;1.00;;;0.93;;
4794;SDS011;2411;47.060;15.064;2023-12-07T09:57:55;0.70;;;0.70;;
4794;SDS011;2411;47.060;15.064;2023-12-07T10:00:24;0.90;;;0.90;;
4794;SDS011;2411;47.060;15.064;2023-12-07T10:02:52;0.90;;;0.83;;
4794;SDS011;2411;47.060;15.064;2023-12-07T10:05:21;0.60;;;0.60;;
4794;SDS011;2411;47.060;15.064;2023-12-07T10:07:49;0.87;;;0.87;;
4794;SDS011;2411;47.060;15.064;2023-12-07T10:10:17;0.80;;;0.80;;
4794;SDS011;2411;47.060;15.064;2023-12-07T10:15:23;0.97;;;0.97;;
4794;SDS011;2411;47.060;15.064;2023-12-07T10:17:52;0.80;;;0.80;;
4794;SDS011;2411;47.060;15.064;2023-12-07T10:20:22;0.87;;;0.87;;
4794;SDS011;2411;47.060;15.064;2023-12-07T10:23:01;1.23;;;0.80;;
4794;SDS011;2411;47.060;15.064;2023-12-07T10:25:37;1.10;;;1.00;;
4794;SDS011;2411;47.060;15.064;2023-12-07T10:28:08;1.00;;;1.00;;
4794;SDS011;2411;47.060;15.064;2023-12-07T10:30:41;1.00;;;0.90;;
4794;SDS011;2411;47.060;15.064;2023-12-07T10:33:11;0.90;;;0.90;;
4794;SDS011;2411;47.060;15.064;2023-12-07T10:35:40;0.87;;;0.87;;
4794;SDS011;2411;47.060;15.064;2023-12-07T10:38:10;0.70;;;0.70;;
4794;SDS011;2411;47.060;15.064;2023-12-07T10:40:38;1.13;;;1.03;;
4794;SDS011;2411;47.060;15.064;2023-12-07T10:43:06;0.87;;;0.87;;
4794;SDS011;2411;47.060;15.064;2023-12-07T10:45:35;1.10;;;1.00;;
4794;SDS011;2411;47.060;15.064;2023-12-07T10:48:07;0.87;;;0.87;;
4794;SDS011;2411;47.060;15.064;2023-12-07T10:50:36;0.90;;;0.90;;
4794;SDS011;2411;47.060;15.064;2023-12-07T10:53:10;0.77;;;0.77;;
4794;SDS011;2411;47.060;15.064;2023-12-07T10:56:24;1.63;;;1.53;;
4794;SDS011;2411;47.060;15.064;2023-12-07T10:59:28;0.80;;;0.80;;
4794;SDS011;2411;47.060;15.064;2023-12-07T11:02:21;1.00;;;1.00;;
4794;SDS011;2411;47.060;15.064;2023-12-07T11:05:09;0.90;;;0.90;;
4794;SDS011;2411;47.060;15.064;2023-12-07T11:14:03;0.90;;;0.90;;
4794;SDS011;2411;47.060;15.064;2023-12-07T11:16:52;0.97;;;0.97;;
4794;SDS011;2411;47.060;15.064;2023-12-07T11:22:29;1.10;;;1.10;;
4794;SDS011;2411;47.060;15.064;2023-12-07T11:25:18;0.97;;;0.87;;
4794;SDS011;2411;47.060;15.064;2023-12-07T11:28:07;1.07;;;0.97;;
4794;SDS011;2411;47.060;15.064;2023-12-07T11:30:56;0.80;;;0.80;;
4794;SDS011;2411;47.060;15.064;2023-12-07T11:33:43;1.00;;;1.00;;
4794;SDS011;2411;47.060;15.064;2023-12-07T11:36:32;0.97;;;0.97;;
4794;SDS011;2411;47.060;15.064;2023-12-07T11:39:19;1.00;;;1.00;;
4794;SDS011;2411;47.060;15.064;2023-12-07T11:42:16;1.03;;;0.93;;
4794;SDS011;2411;47.060;15.064;2023-12-07T11:45:04;0.90;;;0.90;;
4794;SDS011;2411;47.060;15.064;2023-12-07T11:48:07;0.90;;;0.90;;
4794;SDS011;2411;47.060;15.064;2023-12-07T11:51:04;0.93;;;0.93;;
4794;SDS011;2411;47.060;15.064;2023-12-07T11:53:54;0.87;;;0.87;;
4794;SDS011;2411;47.060;15.064;2023-12-07T11:56:41;1.20;;;1.20;;
4794;SDS011;2411;47.060;15.064;2023-12-07T11:59:28;0.90;;;0.90;;
4794;SDS011;2411;47.060;15.064;2023-12-07T12:02:20;1.10;;;1.10;;
4794;SDS011;2411;47.060;15.064;2023-12-07T12:05:08;1.30;;;1.30;;
4794;SDS011;2411;47.060;15.064;2023-12-07T12:07:56;1.00;;;1.00;;
4794;SDS011;2411;47.060;15.064;2023-12-07T12:10:44;1.20;;;1.20;;
4794;SDS011;2411;47.060;15.064;2023-12-07T12:13:36;1.07;;;0.87;;
4794;SDS011;2411;47.060;15.064;2023-12-07T12:16:24;1.00;;;1.00;;
4794;SDS011;2411;47.060;15.064;2023-12-07T12:19:11;0.90;;;0.90;;
4794;SDS011;2411;47.060;15.064;2023-12-07T12:22:18;1.27;;;1.17;;
4794;SDS011;2411;47.060;15.064;2023-12-07T12:25:05;1.20;;;1.10;;
4794;SDS011;2411;47.060;15.064;2023-12-07T12:27:53;0.90;;;0.90;;
4794;SDS011;2411;47.060;15.064;2023-12-07T12:30:47;1.50;;;0.97;;
4794;SDS011;2411;47.060;15.064;2023-12-07T12:33:36;0.83;;;0.83;;
4794;SDS011;2411;47.060;15.064;2023-12-07T12:36:24;0.90;;;0.90;;
4794;SDS011;2411;47.060;15.064;2023-12-07T12:39:14;1.00;;;1.00;;
4794;SDS011;2411;47.060;15.064;2023-12-07T12:42:15;1.07;;;1.07;;
4794;SDS011;2411;47.060;15.064;2023-12-07T12:45:05;1.00;;;1.00;;
4794;SDS011;2411;47.060;15.064;2023-12-07T12:47:55;1.13;;;0.97;;
4794;SDS011;2411;47.060;15.064;2023-12-07T12:50:43;0.97;;;0.83;;
4794;SDS011;2411;47.060;15.064;2023-12-07T12:53:30;1.27;;;1.00;;
4794;SDS011;2411;47.060;15.064;2023-12-07T12:56:18;1.10;;;1.10;;
4794;SDS011;2411;47.060;15.064;2023-12-07T12:59:08;1.10;;;1.10;;
4794;SDS011;2411;47.060;15.064;2023-12-07T13:01:55;1.50;;;1.40;;
4794;SDS011;2411;47.060;15.064;2023-12-07T13:04:43;0.93;;;0.93;;
4794;SDS011;2411;47.060;15.064;2023-12-07T13:07:37;1.00;;;1.00;;
4794;SDS011;2411;47.060;15.064;2023-12-07T13:10:24;1.00;;;1.00;;
4794;SDS011;2411;47.060;15.064;2023-12-07T13:13:12;1.10;;;1.10;;
4794;SDS011;2411;47.060;15.064;2023-12-07T13:15:59;1.27;;;1.10;;
4794;SDS011;2411;47.060;15.064;2023-12-07T13:18:47;1.00;;;1.00;;
4794;SDS011;2411;47.060;15.064;2023-12-07T13:21:34;1.43;;;1.33;;
4794;SDS011;2411;47.060;15.064;2023-12-07T13:24:21;1.40;;;1.27;;
4794;SDS011;2411;47.060;15.064;2023-12-07T13:27:09;1.13;;;1.10;;
4794;SDS011;2411;47.060;15.064;2023-12-07T13:29:56;1.27;;;1.27;;
4794;SDS011;2411;47.060;15.064;2023-12-07T13:32:43;1.13;;;1.13;;
4794;SDS011;2411;47.060;15.064;2023-12-07T13:35:31;2.50;;;1.20;;
4794;SDS011;2411;47.060;15.064;2023-12-07T13:37:59;1.50;;;1.40;;
4794;SDS011;2411;47.060;15.064;2023-12-07T13:40:29;1.10;;;1.10;;
4794;SDS011;2411;47.060;15.064;2023-12-07T13:42:57;1.20;;;1.10;;
4794;SDS011;2411;47.060;15.064;2023-12-07T13:45:24;1.23;;;1.23;;
4794;SDS011;2411;47.060;15.064;2023-12-07T13:47:51;1.23;;;1.23;;
4794;SDS011;2411;47.060;15.064;2023-12-07T13:50:19;1.50;;;1.33;;
4794;SDS011;2411;47.060;15.064;2023-12-07T13:52:46;1.20;;;1.20;;
4794;SDS011;2411;47.060;15.064;2023-12-07T13:55:14;1.20;;;1.20;;
4794;SDS011;2411;47.060;15.064;2023-12-07T13:57:41;1.30;;;1.20;;
4794;SDS011;2411;47.060;15.064;2023-12-07T14:00:09;1.10;;;1.10;;
4794;SDS011;2411;47.060;15.064;2023-12-07T14:02:39;1.30;;;1.20;;
4794;SDS011;2411;47.060;15.064;2023-12-07T14:05:08;1.40;;;1.40;;
4794;SDS011;2411;47.060;15.064;2023-12-07T14:07:35;1.13;;;1.00;;
4794;SDS011;2411;47.060;15.064;2023-12-07T14:10:03;1.00;;;1.00;;
4794;SDS011;2411;47.060;15.064;2023-12-07T14:12:30;1.00;;;0.97;;
4794;SDS011;2411;47.060;15.064;2023-12-07T14:15:00;1.63;;;1.53;;
4794;SDS011;2411;47.060;15.064;2023-12-07T14:17:27;1.33;;;1.23;;
4794;SDS011;2411;47.060;15.064;2023-12-07T14:20:09;1.80;;;1.70;;
4794;SDS011;2411;47.060;15.064;2023-12-07T14:22:58;1.60;;;1.50;;
4794;SDS011;2411;47.060;15.064;2023-12-07T14:25:31;2.00;;;1.80;;
4794;SDS011;2411;47.060;15.064;2023-12-07T14:27:58;3.43;;;2.07;;
4794;SDS011;2411;47.060;15.064;2023-12-07T14:30:26;2.77;;;2.00;;
4794;SDS011;2411;47.060;15.064;2023-12-07T14:32:53;1.53;;;1.53;;
4794;SDS011;2411;47.060;15.064;2023-12-07T14:35:20;1.73;;;1.63;;
4794;SDS011;2411;47.060;15.064;2023-12-07T14:37:49;1.67;;;1.57;;
4794;SDS011;2411;47.060;15.064;2023-12-07T14:40:17;1.60;;;1.50;;
4794;SDS011;2411;47.060;15.064;2023-12-07T14:42:44;1.70;;;1.60;;
4794;SDS011;2411;47.060;15.064;2023-12-07T14:45:13;1.27;;;1.27;;
4794;SDS011;2411;47.060;15.064;2023-12-07T14:47:42;2.40;;;2.30;;
4794;SDS011;2411;47.060;15.064;2023-12-07T14:50:10;2.43;;;2.30;;
4794;SDS011;2411;47.060;15.064;2023-12-07T14:52:38;1.57;;;1.47;;
4794;SDS011;2411;47.060;15.064;2023-12-07T14:55:05;1.80;;;1.70;;
4794;SDS011;2411;47.060;15.064;2023-12-07T14:57:33;2.10;;;1.47;;
4794;SDS011;2411;47.060;15.064;2023-12-07T15:00:01;2.33;;;2.13;;
4794;SDS011;2411;47.060;15.064;2023-12-07T15:02:31;2.20;;;2.10;;
4794;SDS011;2411;47.060;15.064;2023-12-07T15:04:58;4.07;;;3.40;;
4794;SDS011;2411;47.060;15.064;2023-12-07T15:07:26;2.90;;;2.70;;
4794;SDS011;2411;47.060;15.064;2023-12-07T15:09:54;2.90;;;2.70;;
4794;SDS011;2411;47.060;15.064;2023-12-07T15:12:22;3.00;;;2.80;;
4794;SDS011;2411;47.060;15.064;2023-12-07T15:14:54;3.33;;;2.83;;
4794;SDS011;2411;47.060;15.064;2023-12-07T15:17:22;3.53;;;2.77;;
4794;SDS011;2411;47.060;15.064;2023-12-07T15:19:49;2.43;;;2.23;;
4794;SDS011;2411;47.060;15.064;2023-12-07T15:22:17;2.90;;;2.30;;
4794;SDS011;2411;47.060;15.064;2023-12-07T15:24:44;2.67;;;2.27;;
4794;SDS011;2411;47.060;15.064;2023-12-07T15:27:12;1.70;;;1.60;;
4794;SDS011;2411;47.060;15.064;2023-12-07T15:29:39;2.40;;;2.20;;
4794;SDS011;2411;47.060;15.064;2023-12-07T15:32:07;2.13;;;2.03;;
4794;SDS011;2411;47.060;15.064;2023-12-07T15:34:36;2.23;;;2.13;;
4794;SDS011;2411;47.060;15.064;2023-12-07T15:37:07;1.97;;;1.87;;
4794;SDS011;2411;47.060;15.064;2023-12-07T15:39:39;2.20;;;2.00;;